This is the latest recevied weather packets stored in our database for station/object KD0SBN. If no packets are shown the sender has not sent any weather packets the latest 10 day(s).
| Time | Temp. | Humidity | Pressure | Rain* | Wind** | Luminosity | Snow |
|---|---|---|---|---|---|---|---|
| 1778240317 | 10.56° C | 63% | 1014.5 hPa | 0 mm | - | - | - |
| 1778240016 | 11.11° C | 63% | 1014.4 hPa | 0 mm | - | - | - |
| 1778239712 | 10° C | 65% | 1014.5 hPa | 0 mm | - | - | - |
| 1778239409 | 10° C | 66% | 1014.7 hPa | 0 mm | - | - | - |
| 1778239105 | 10.56° C | 64% | 1014.7 hPa | 0 mm | - | - | - |
| 1778238803 | 10.56° C | 63% | 1014.7 hPa | 0 mm | - | - | - |
| 1778238500 | 11.11° C | 63% | 1014.7 hPa | 0 mm | - | - | - |
| 1778238198 | 11.11° C | 64% | 1014.5 hPa | 0 mm | - | - | - |
| 1778237897 | 11.11° C | 63% | 1014.5 hPa | 0 mm | - | - | - |
| 1778237594 | 10.56° C | 69% | 1014.2 hPa | 0 mm | - | - | - |
| 1778237291 | 10.56° C | 66% | 1014.3 hPa | 0 mm | - | - | - |
| 1778236988 | 10° C | 68% | 1014.2 hPa | 0 mm | - | - | - |
| 1778236685 | 10° C | 70% | 1014.4 hPa | 0 mm | - | - | - |
| 1778236382 | 10° C | 70% | 1014.3 hPa | 0 mm | - | - | - |
| 1778236079 | 10° C | 69% | 1014.3 hPa | 0 mm | - | - | - |
| 1778235777 | 10.56° C | 70% | 1014.3 hPa | 0 mm | - | - | - |
| 1778235474 | 10.56° C | 68% | 1014.2 hPa | 0 mm | - | - | - |
| 1778235172 | 10.56° C | 68% | 1014.5 hPa | 0 mm | - | - | - |
| 1778234869 | 10.56° C | 67% | 1014.2 hPa | 0 mm | - | - | - |
| 1778234567 | 11.67° C | 65% | 1014.4 hPa | 0 mm | - | - | - |
| 1778234263 | 12.22° C | 62% | 1014.2 hPa | 0 mm | - | - | - |
| 1778233961 | 12.22° C | 61% | 1014.2 hPa | 0 mm | - | - | - |
| 1778233657 | 12.22° C | 60% | 1014.2 hPa | 0 mm | - | - | - |
| 1778233355 | 12.22° C | 60% | 1014.3 hPa | 0 mm | - | - | - |
| 1778233052 | 12.22° C | 60% | 1014.3 hPa | 0 mm | - | - | - |
* Rain latest hour (hover to see other rain measurements)
** Current wind speed in m/s (hover to see current wind gust speed)